createdAt,value
2022-10-14T00:01:24.244Z,77.35
2022-10-14T00:03:52.696Z,77.32
2022-10-14T00:06:27.156Z,76.96
2022-10-14T00:08:55.715Z,76.26
2022-10-14T00:11:27.976Z,76.38
2022-10-14T00:13:56.709Z,77.18
2022-10-14T00:16:35.320Z,76.72
2022-10-14T00:19:06.039Z,75.73
2022-10-14T00:21:34.856Z,75.49
2022-10-14T00:24:01.957Z,74.92
2022-10-14T00:26:38.899Z,74.41
2022-10-14T00:29:18.012Z,74.18
2022-10-14T00:31:45.712Z,73.85
2022-10-14T00:34:15.875Z,74.08
2022-10-14T00:36:44.606Z,73.77
2022-10-14T00:39:12.316Z,73.33
2022-10-14T00:41:42.932Z,73.02
2022-10-14T00:44:15.892Z,73.71
2022-10-14T00:46:50.138Z,74.04
2022-10-14T00:49:36.954Z,74.35
2022-10-14T00:52:13.676Z,74.54
2022-10-14T00:54:54.378Z,74.13
2022-10-14T00:57:23.642Z,74.30
2022-10-14T00:59:59.491Z,75.30
2022-10-14T01:02:26.624Z,75.24
2022-10-14T01:04:53.964Z,75.38
2022-10-14T01:07:58.198Z,75.90
2022-10-14T01:10:55.635Z,76.40
2022-10-14T01:13:41.708Z,76.46
2022-10-14T01:16:31.667Z,76.39
2022-10-14T01:19:10.912Z,76.22
2022-10-14T01:21:48.623Z,76.34
2022-10-14T01:24:46.446Z,76.68
2022-10-14T01:27:54.690Z,75.59
2022-10-14T01:30:23.762Z,75.11
2022-10-14T01:33:07.073Z,74.15
2022-10-14T01:35:55.864Z,75.33
2022-10-14T01:38:29.363Z,74.70
2022-10-14T01:41:17.461Z,76.66
2022-10-14T01:43:48.624Z,78.42
2022-10-14T01:46:18.485Z,79.31
2022-10-14T01:48:53.553Z,79.20
2022-10-14T01:51:28.554Z,79.85
2022-10-14T01:54:05.362Z,78.25
2022-10-14T01:56:38.148Z,79.40
2022-10-14T01:59:09.809Z,77.51
2022-10-14T02:01:36.870Z,79.27
2022-10-14T02:04:18.676Z,77.38
2022-10-14T02:07:09.485Z,78.17
2022-10-14T02:10:17.479Z,77.03
2022-10-14T02:13:19.486Z,76.79
2022-10-14T02:16:26.514Z,77.07
2022-10-14T02:19:24.177Z,77.44
2022-10-14T02:22:06.632Z,76.79
2022-10-14T02:24:41.208Z,76.18
2022-10-14T02:27:15.523Z,76.46
2022-10-14T02:29:46.536Z,75.94
2022-10-14T02:32:20.992Z,75.32
2022-10-14T02:34:54.819Z,75.88
2022-10-14T02:37:23.797Z,77.22
2022-10-14T02:40:14.820Z,76.27
2022-10-14T02:42:42.121Z,75.77
2022-10-14T02:45:10.988Z,75.90
2022-10-14T02:47:38.016Z,75.14
2022-10-14T02:50:05.574Z,75.24
2022-10-14T02:52:33.793Z,76.34
2022-10-14T02:55:00.795Z,77.03
2022-10-14T02:57:27.801Z,77.98
2022-10-14T02:59:54.849Z,77.33
2022-10-14T03:02:21.990Z,77.02
2022-10-14T03:04:49.206Z,76.63
2022-10-14T03:07:16.189Z,77.78
2022-10-14T03:09:43.297Z,78.95
2022-10-14T03:12:12.579Z,77.65
2022-10-14T03:14:39.683Z,78.16
2022-10-14T03:17:06.773Z,78.14
2022-10-14T03:19:34.169Z,78.26
2022-10-14T03:22:01.258Z,78.62
2022-10-14T03:24:28.292Z,78.77
2022-10-14T03:26:55.312Z,79.53
2022-10-14T03:29:22.496Z,79.51
2022-10-14T03:31:49.685Z,79.16
2022-10-14T03:34:16.822Z,78.40
2022-10-14T03:36:43.807Z,77.15
2022-10-14T03:39:12.432Z,76.96
2022-10-14T03:41:39.763Z,78.01
2022-10-14T03:44:09.588Z,76.89
2022-10-14T03:46:36.621Z,76.09
2022-10-14T03:49:03.962Z,76.96
2022-10-14T03:51:31.195Z,75.65
2022-10-14T03:53:58.229Z,75.03
2022-10-14T03:56:25.205Z,74.78
2022-10-14T03:58:52.273Z,74.41
2022-10-14T04:01:21.515Z,74.21
2022-10-14T04:03:48.627Z,75.03
2022-10-14T04:06:15.778Z,74.85
2022-10-14T04:08:43.479Z,75.04
2022-10-14T04:11:11.008Z,74.89
2022-10-14T04:13:38.116Z,74.97
2022-10-14T04:16:10.966Z,75.14
2022-10-14T04:18:38.755Z,74.58
2022-10-14T04:21:11.179Z,74.38
2022-10-14T04:23:38.676Z,74.31
2022-10-14T04:26:08.372Z,75.40
2022-10-14T04:28:40.018Z,74.84
2022-10-14T04:31:07.165Z,75.74
2022-10-14T04:33:35.195Z,75.25
2022-10-14T04:36:06.338Z,75.00
2022-10-14T04:38:34.046Z,75.76
2022-10-14T04:41:01.150Z,75.84
2022-10-14T04:43:28.303Z,75.70
2022-10-14T04:45:55.497Z,76.57
2022-10-14T04:48:25.046Z,74.89
2022-10-14T04:50:54.116Z,76.69
2022-10-14T04:53:22.415Z,76.93
2022-10-14T04:55:52.445Z,76.87
2022-10-14T04:58:20.205Z,77.83
2022-10-14T05:00:47.360Z,78.55
2022-10-14T05:03:14.438Z,77.71
2022-10-14T05:05:42.125Z,77.40
2022-10-14T05:08:09.228Z,78.76
2022-10-14T05:10:44.080Z,76.70
2022-10-14T05:13:11.784Z,76.88
2022-10-14T05:15:38.882Z,77.97
2022-10-14T05:18:06.023Z,79.53
2022-10-14T05:20:33.033Z,79.50
2022-10-14T05:23:00.254Z,78.89
2022-10-14T05:25:27.628Z,78.81
2022-10-14T05:27:54.629Z,78.37
2022-10-14T05:30:21.680Z,77.21
2022-10-14T05:32:48.901Z,79.54
2022-10-14T05:35:29.082Z,78.97
2022-10-14T05:38:04.779Z,78.63
2022-10-14T05:40:32.027Z,78.67
2022-10-14T05:42:59.229Z,80.08
2022-10-14T05:45:26.943Z,78.84
2022-10-14T05:47:56.380Z,78.42
2022-10-14T05:50:24.911Z,77.80
2022-10-14T05:52:51.877Z,77.01
2022-10-14T05:55:18.958Z,77.51
2022-10-14T05:57:46.314Z,76.56
2022-10-14T06:00:14.260Z,75.68
2022-10-14T06:02:41.486Z,75.10
2022-10-14T06:05:09.150Z,77.50
2022-10-14T06:07:36.557Z,76.19
2022-10-14T06:10:04.317Z,78.50
2022-10-14T06:12:32.535Z,77.69
2022-10-14T06:15:00.130Z,76.62
2022-10-14T06:17:28.135Z,77.01
2022-10-14T06:19:55.229Z,76.43
2022-10-14T06:22:22.605Z,75.93
2022-10-14T06:24:50.143Z,76.59
2022-10-14T06:27:17.419Z,76.43
2022-10-14T06:29:44.665Z,76.41
2022-10-14T06:32:11.652Z,75.19
2022-10-14T06:34:39.194Z,74.35
2022-10-14T06:37:06.405Z,75.75
2022-10-14T06:39:33.379Z,74.62
2022-10-14T06:42:02.124Z,70.04
2022-10-14T06:44:29.119Z,66.55
2022-10-14T06:46:56.439Z,66.66
2022-10-14T06:49:23.622Z,68.31
2022-10-14T06:51:52.959Z,67.02
2022-10-14T06:54:20.337Z,67.18
2022-10-14T06:56:53.632Z,66.37
2022-10-14T06:59:21.630Z,66.57
2022-10-14T07:01:48.701Z,66.05
2022-10-14T07:04:16.728Z,66.48
2022-10-14T07:06:43.777Z,66.51
2022-10-14T07:09:10.880Z,66.89
2022-10-14T07:11:38.041Z,67.03
2022-10-14T07:14:05.179Z,66.03
2022-10-14T07:16:36.230Z,65.04
2022-10-14T07:19:03.759Z,63.92
2022-10-14T07:21:33.534Z,64.20
2022-10-14T07:24:00.573Z,65.93
2022-10-14T07:26:31.594Z,62.17
2022-10-14T07:29:01.733Z,62.61
2022-10-14T07:31:30.058Z,64.70
2022-10-14T07:33:57.654Z,64.31
2022-10-14T07:36:25.011Z,63.92
2022-10-14T07:38:52.079Z,66.37
2022-10-14T07:41:23.766Z,65.36
2022-10-14T07:43:54.747Z,63.28
2022-10-14T07:46:33.120Z,62.79
2022-10-14T07:49:12.397Z,61.73
2022-10-14T07:51:40.479Z,62.37
2022-10-14T07:54:14.943Z,59.70
2022-10-14T07:56:43.721Z,59.80
2022-10-14T07:59:11.984Z,61.18
2022-10-14T08:01:39.175Z,57.41
2022-10-14T08:04:06.351Z,58.03
2022-10-14T08:06:33.596Z,59.18
2022-10-14T08:09:00.615Z,58.18
2022-10-14T08:11:29.596Z,57.46
2022-10-14T08:13:58.588Z,55.88
2022-10-14T08:16:32.621Z,53.14
2022-10-14T08:19:06.104Z,50.91
2022-10-14T08:21:35.722Z,49.02
2022-10-14T08:24:02.825Z,53.10
2022-10-14T08:26:51.107Z,47.37
2022-10-14T08:29:22.665Z,47.92
2022-10-14T08:31:51.557Z,48.18
2022-10-14T08:34:21.802Z,47.25
2022-10-14T08:36:51.201Z,48.60
2022-10-14T08:39:19.715Z,46.63
2022-10-14T08:42:05.299Z,47.67
2022-10-14T08:44:59.119Z,49.18
2022-10-14T08:47:37.245Z,50.24
2022-10-14T08:50:53.030Z,47.46
2022-10-14T08:53:31.438Z,44.04
2022-10-14T08:56:01.449Z,44.56
2022-10-14T08:58:42.864Z,42.81
2022-10-14T09:01:27.207Z,44.62
2022-10-14T09:04:05.621Z,41.88
2022-10-14T09:06:36.445Z,40.57
2022-10-14T09:09:42.125Z,44.94
2022-10-14T09:12:16.721Z,40.94
2022-10-14T09:14:57.412Z,43.37
2022-10-14T09:17:35.513Z,42.15
2022-10-14T09:20:18.456Z,42.21
2022-10-14T09:23:05.325Z,41.46
2022-10-14T09:25:35.329Z,39.42
2022-10-14T09:28:02.901Z,38.36
2022-10-14T09:30:37.971Z,38.89
2022-10-14T09:33:17.725Z,41.17
2022-10-14T09:35:45.299Z,38.75
2022-10-14T09:38:13.971Z,41.25
2022-10-14T09:40:47.254Z,39.77
2022-10-14T09:43:21.257Z,37.45
2022-10-14T09:46:10.376Z,39.43
2022-10-14T09:48:40.201Z,38.46
2022-10-14T09:51:18.970Z,40.00
2022-10-14T09:53:51.976Z,37.42
2022-10-14T09:56:40.716Z,40.28
2022-10-14T09:59:22.163Z,42.56
2022-10-14T10:02:14.183Z,39.61
2022-10-14T10:04:47.056Z,36.90
2022-10-14T10:07:32.181Z,36.79
2022-10-14T10:10:04.338Z,39.05
2022-10-14T10:12:35.377Z,37.82
2022-10-14T10:15:06.086Z,34.59
2022-10-14T10:17:38.489Z,41.54
2022-10-14T10:20:19.434Z,40.27
2022-10-14T10:22:46.728Z,42.00
2022-10-14T10:25:13.901Z,39.98
2022-10-14T10:27:45.663Z,41.31
2022-10-14T10:30:21.769Z,38.71
2022-10-14T10:33:35.550Z,38.34
2022-10-14T10:36:20.975Z,39.29
2022-10-14T10:39:42.545Z,37.50
2022-10-14T10:42:32.428Z,35.76
2022-10-14T10:45:07.125Z,35.65
2022-10-14T10:47:46.141Z,34.48
2022-10-14T10:50:30.326Z,35.53
2022-10-14T10:53:33.893Z,33.91
2022-10-14T10:56:06.909Z,40.47
2022-10-14T10:59:10.431Z,38.49
2022-10-14T11:02:27.335Z,37.80
2022-10-14T11:05:23.437Z,37.17
2022-10-14T11:08:47.339Z,36.85
2022-10-14T11:11:43.378Z,38.21
2022-10-14T11:14:51.233Z,36.03
2022-10-14T11:17:31.666Z,36.66
2022-10-14T11:20:15.126Z,35.85
2022-10-14T11:23:14.220Z,39.27
2022-10-14T11:26:24.315Z,38.61
2022-10-14T11:29:19.446Z,39.56
2022-10-14T11:32:16.605Z,39.46
2022-10-14T11:34:55.284Z,41.67
2022-10-14T11:37:40.133Z,43.18
2022-10-14T11:40:18.487Z,46.29
2022-10-14T11:43:24.476Z,44.47
2022-10-14T11:46:07.665Z,42.29
2022-10-14T11:48:55.886Z,43.18
2022-10-14T11:51:50.637Z,42.56
2022-10-14T11:54:36.627Z,43.36
2022-10-14T11:57:22.950Z,45.29
2022-10-14T12:00:01.356Z,46.48
2022-10-14T12:02:52.858Z,46.24
2022-10-14T12:05:52.900Z,45.69
2022-10-14T12:08:22.556Z,46.84
2022-10-14T12:11:14.548Z,45.60
2022-10-14T12:13:52.888Z,45.38
2022-10-14T12:16:24.687Z,46.80
2022-10-14T12:19:09.163Z,48.56
2022-10-14T12:22:16.818Z,48.19
2022-10-14T12:24:59.224Z,48.07
2022-10-14T12:27:28.609Z,49.26
2022-10-14T12:29:58.501Z,48.62
2022-10-14T12:32:31.892Z,49.72
2022-10-14T12:35:33.543Z,48.92
2022-10-14T12:38:04.184Z,48.60
2022-10-14T12:40:31.774Z,49.42
2022-10-14T12:43:35.317Z,51.22
2022-10-14T12:46:15.983Z,49.92
2022-10-14T12:48:51.483Z,49.55
2022-10-14T12:51:22.980Z,48.48
2022-10-14T12:54:13.291Z,47.21
2022-10-14T12:56:56.125Z,48.36
2022-10-14T12:59:38.755Z,47.71
2022-10-14T13:02:48.643Z,47.71
2022-10-14T13:05:38.119Z,47.74
2022-10-14T13:08:20.103Z,47.76
2022-10-14T13:11:12.150Z,47.56
2022-10-14T13:13:52.563Z,50.08
2022-10-14T13:16:25.714Z,52.50
2022-10-14T13:19:03.178Z,51.16
2022-10-14T13:21:34.451Z,50.31
2022-10-14T13:24:05.839Z,50.95
2022-10-14T13:26:54.082Z,49.70
2022-10-14T13:29:21.054Z,50.56
2022-10-14T13:32:53.878Z,49.99
2022-10-14T13:35:23.857Z,51.90
2022-10-14T13:38:00.242Z,52.03
2022-10-14T13:40:39.640Z,51.33
2022-10-14T13:43:26.854Z,52.37
2022-10-14T13:46:04.913Z,52.62
2022-10-14T13:48:39.827Z,53.54
2022-10-14T13:51:43.305Z,52.99
2022-10-14T13:54:28.474Z,52.46
2022-10-14T13:57:34.676Z,53.08
2022-10-14T14:02:39.500Z,52.59
2022-10-14T14:05:16.313Z,52.70
2022-10-14T14:08:22.114Z,53.92
2022-10-14T14:10:32.251Z,54.17
2022-10-14T14:13:04.785Z,54.62
2022-10-14T14:15:31.994Z,53.98
2022-10-14T14:17:59.008Z,53.82
2022-10-14T14:20:33.979Z,54.31
2022-10-14T14:23:01.095Z,54.09
2022-10-14T14:25:46.777Z,55.17
2022-10-14T14:28:19.196Z,55.06
2022-10-14T14:30:55.572Z,54.81
2022-10-14T14:33:33.953Z,54.67
2022-10-14T14:36:04.661Z,54.06
2022-10-14T14:38:37.655Z,54.15
2022-10-14T14:41:26.614Z,55.43
2022-10-14T14:44:24.454Z,55.83
2022-10-14T14:46:58.049Z,53.99
2022-10-14T14:49:38.140Z,55.01
2022-10-14T14:52:06.349Z,55.84
2022-10-14T14:54:43.768Z,54.25
2022-10-14T14:57:13.222Z,56.06
2022-10-14T14:59:48.104Z,55.78
2022-10-14T15:02:21.412Z,56.72
2022-10-14T15:05:08.138Z,56.82
2022-10-14T15:07:37.068Z,55.99
2022-10-14T15:10:07.919Z,55.46
2022-10-14T15:12:42.632Z,57.13
2022-10-14T15:15:29.903Z,57.26
2022-10-14T15:18:28.183Z,57.57
2022-10-14T15:21:27.874Z,57.07
2022-10-14T15:23:56.146Z,56.88
2022-10-14T15:26:35.738Z,57.25
2022-10-14T15:29:24.980Z,56.56
2022-10-14T15:32:15.654Z,56.82
2022-10-14T15:34:42.748Z,57.58
2022-10-14T15:37:15.979Z,57.81
2022-10-14T15:39:43.110Z,57.79
2022-10-14T15:42:12.792Z,58.52
2022-10-14T15:44:39.825Z,59.72
2022-10-14T15:47:21.078Z,60.17
2022-10-14T15:49:48.232Z,60.09
2022-10-14T15:52:17.795Z,59.80
2022-10-14T15:54:47.689Z,59.33
2022-10-14T15:57:33.351Z,60.97
2022-10-14T16:00:00.307Z,60.63
2022-10-14T16:02:35.237Z,60.86
2022-10-14T16:07:49.907Z,61.45
2022-10-14T16:10:20.910Z,61.93
2022-10-14T16:12:49.155Z,61.66
2022-10-14T16:15:40.973Z,61.02
2022-10-14T16:18:08.843Z,60.17
2022-10-14T16:20:35.962Z,60.34
2022-10-14T16:23:04.721Z,61.15
2022-10-14T16:25:39.943Z,61.19
2022-10-14T16:28:11.260Z,61.61
2022-10-14T16:30:42.074Z,62.97
2022-10-14T16:35:38.865Z,62.35
2022-10-14T16:38:06.049Z,62.97
2022-10-14T16:40:36.705Z,63.27
2022-10-14T16:43:04.687Z,62.18
2022-10-14T16:45:32.748Z,62.36
2022-10-14T16:47:59.767Z,62.93
2022-10-14T16:50:26.833Z,63.04
2022-10-14T16:53:12.656Z,62.91
2022-10-14T16:55:41.953Z,63.49
2022-10-14T16:58:08.966Z,64.50
2022-10-14T17:00:35.965Z,64.13
2022-10-14T17:03:03.109Z,63.87
2022-10-14T17:05:30.519Z,64.67
2022-10-14T17:07:57.648Z,63.84
2022-10-14T17:10:25.285Z,63.61
2022-10-14T17:13:09.405Z,63.51
2022-10-14T17:15:36.557Z,64.31
2022-10-14T17:18:03.728Z,64.76
2022-10-14T17:20:30.729Z,64.55
2022-10-14T17:22:57.762Z,64.37
2022-10-14T17:25:24.737Z,64.28
2022-10-14T17:27:52.443Z,65.20
2022-10-14T17:30:19.390Z,64.88
2022-10-14T17:32:46.359Z,64.24
2022-10-14T17:35:15.234Z,65.61
2022-10-14T17:37:42.597Z,65.28
2022-10-14T17:40:10.292Z,65.25
2022-10-14T17:42:37.316Z,65.86
2022-10-14T17:45:04.717Z,66.23
2022-10-14T17:47:34.168Z,66.65
2022-10-14T17:50:01.191Z,66.88
2022-10-14T17:52:28.227Z,65.88
2022-10-14T17:54:58.905Z,65.81
2022-10-14T17:57:28.345Z,67.64
2022-10-14T17:59:55.482Z,67.77
2022-10-14T18:02:22.657Z,66.94
2022-10-14T18:04:50.531Z,67.65
2022-10-14T18:07:18.915Z,67.47
2022-10-14T18:09:46.334Z,68.46
2022-10-14T18:12:13.571Z,68.95
2022-10-14T18:14:41.317Z,70.13
2022-10-14T18:17:13.410Z,69.24
2022-10-14T18:19:46.110Z,68.56
2022-10-14T18:22:17.139Z,69.40
2022-10-14T18:24:44.189Z,69.93
2022-10-14T18:27:11.663Z,70.26
2022-10-14T18:29:41.479Z,72.19
2022-10-14T18:32:08.641Z,72.15
2022-10-14T18:34:35.695Z,73.22
2022-10-14T18:37:02.802Z,72.23
2022-10-14T18:39:29.911Z,71.13
2022-10-14T18:41:56.857Z,70.86
2022-10-14T18:44:23.891Z,71.56
2022-10-14T18:46:51.097Z,72.06
2022-10-14T18:49:18.164Z,71.71
2022-10-14T18:51:46.060Z,72.11
2022-10-14T18:54:20.868Z,72.51
2022-10-14T18:56:48.118Z,73.94
2022-10-14T18:59:21.655Z,71.83
2022-10-14T19:01:53.240Z,71.96
2022-10-14T19:04:24.111Z,72.20
2022-10-14T19:06:51.247Z,72.61
2022-10-14T19:09:29.532Z,73.38
2022-10-14T19:11:59.063Z,73.09
2022-10-14T19:14:28.743Z,72.52
2022-10-14T19:16:55.905Z,72.88
2022-10-14T19:19:22.996Z,74.09
2022-10-14T19:21:54.435Z,73.18
2022-10-14T19:24:21.909Z,73.36
2022-10-14T19:26:50.158Z,72.99
2022-10-14T19:29:18.051Z,72.63
2022-10-14T19:31:45.453Z,72.48
2022-10-14T19:34:15.877Z,72.86
2022-10-14T19:36:44.765Z,73.40
2022-10-14T19:39:16.561Z,75.22
2022-10-14T19:41:45.203Z,73.44
2022-10-14T19:44:14.138Z,73.51
2022-10-14T19:46:41.754Z,73.53
2022-10-14T19:49:14.775Z,73.37
2022-10-14T19:51:42.336Z,72.70
2022-10-14T19:54:11.825Z,72.82
2022-10-14T19:56:38.979Z,73.26
2022-10-14T19:59:06.167Z,72.68
2022-10-14T20:01:33.473Z,72.52
2022-10-14T20:04:02.384Z,73.00
2022-10-14T20:06:35.824Z,73.44
2022-10-14T20:09:04.040Z,72.76
2022-10-14T20:11:34.625Z,72.97
2022-10-14T20:14:01.668Z,73.22
2022-10-14T20:16:28.722Z,73.56
2022-10-14T20:18:56.653Z,73.40
2022-10-14T20:21:24.097Z,74.02
2022-10-14T20:23:51.161Z,73.93
2022-10-14T20:26:21.698Z,73.41
2022-10-14T20:28:50.014Z,73.81
2022-10-14T20:31:20.683Z,72.98
2022-10-14T20:33:50.353Z,73.28
2022-10-14T20:36:21.772Z,73.01
2022-10-14T20:38:49.981Z,72.99
2022-10-14T20:41:25.666Z,72.87
2022-10-14T20:43:55.611Z,73.42
2022-10-14T20:46:24.779Z,72.82
2022-10-14T20:48:56.872Z,72.53
2022-10-14T20:51:24.713Z,73.57
2022-10-14T20:54:01.877Z,73.30
2022-10-14T20:56:32.890Z,73.62
2022-10-14T20:59:06.194Z,73.53
2022-10-14T21:01:35.520Z,73.09
2022-10-14T21:04:07.167Z,72.74
2022-10-14T21:06:35.073Z,72.74
2022-10-14T21:09:03.764Z,72.21
2022-10-14T21:11:31.145Z,72.23
2022-10-14T21:14:00.159Z,73.53
2022-10-14T21:16:32.994Z,73.43
2022-10-14T21:19:06.467Z,73.35
2022-10-14T21:21:45.546Z,72.21
2022-10-14T21:24:19.366Z,71.75
2022-10-14T21:26:51.048Z,72.04
2022-10-14T21:29:22.249Z,72.20
2022-10-14T21:31:49.840Z,71.90
2022-10-14T21:34:16.934Z,72.80
2022-10-14T21:36:43.918Z,72.34
2022-10-14T21:39:14.869Z,72.97
2022-10-14T21:41:43.186Z,73.56
2022-10-14T21:44:15.130Z,73.91
2022-10-14T21:46:44.430Z,73.00
2022-10-14T21:49:11.787Z,72.74
2022-10-14T21:51:39.942Z,72.48
2022-10-14T21:54:07.425Z,72.77
2022-10-14T21:56:34.572Z,72.32
2022-10-14T21:59:01.698Z,72.05
2022-10-14T22:01:30.270Z,75.53
2022-10-14T22:04:05.723Z,76.46
2022-10-14T22:06:36.636Z,75.93
2022-10-14T22:09:07.287Z,76.45
2022-10-14T22:11:41.019Z,75.09
2022-10-14T22:14:12.770Z,75.25
2022-10-14T22:16:41.148Z,74.30
2022-10-14T22:19:08.282Z,74.01
2022-10-14T22:21:37.466Z,75.11
2022-10-14T22:26:40.477Z,75.22
2022-10-14T22:29:15.033Z,74.92
2022-10-14T22:31:42.870Z,74.16
2022-10-14T22:34:30.415Z,74.29
2022-10-14T22:36:57.668Z,74.24
2022-10-14T22:39:24.677Z,74.09
2022-10-14T22:41:51.748Z,73.35
2022-10-14T22:44:19.061Z,73.18
2022-10-14T22:46:46.592Z,72.24
2022-10-14T22:49:13.607Z,72.52
2022-10-14T22:51:41.301Z,72.80
2022-10-14T22:54:09.983Z,72.65
2022-10-14T22:56:37.655Z,72.44
2022-10-14T22:59:08.481Z,72.45
2022-10-14T23:01:36.235Z,72.48
2022-10-14T23:04:04.244Z,72.13
2022-10-14T23:06:32.225Z,72.18
2022-10-14T23:09:00.621Z,72.37
2022-10-14T23:11:30.107Z,72.77
2022-10-14T23:13:59.200Z,73.01
2022-10-14T23:16:29.365Z,74.54
2022-10-14T23:18:59.103Z,74.50
2022-10-14T23:21:29.955Z,75.61
2022-10-14T23:24:01.233Z,76.01
2022-10-14T23:26:33.106Z,75.87
2022-10-14T23:29:04.511Z,76.97
2022-10-14T23:31:34.097Z,76.05
2022-10-14T23:34:06.144Z,75.17
2022-10-14T23:36:33.949Z,75.10
2022-10-14T23:39:01.015Z,74.41
2022-10-14T23:41:28.132Z,75.04
2022-10-14T23:43:56.849Z,74.72
2022-10-14T23:46:24.667Z,76.54
2022-10-14T23:49:07.010Z,74.13
2022-10-14T23:51:35.699Z,75.07
2022-10-14T23:54:02.929Z,74.64
2022-10-14T23:56:30.227Z,74.66
2022-10-14T23:58:57.341Z,76.66
